createdAt,value
2023-04-26T00:02:18.783Z,14.03
2023-04-26T00:04:47.742Z,16.13
2023-04-26T00:07:16.082Z,15.43
2023-04-26T00:09:44.791Z,13.57
2023-04-26T00:12:12.449Z,13.37
2023-04-26T00:14:39.733Z,11.50
2023-04-26T00:17:07.050Z,13.90
2023-04-26T00:19:34.327Z,10.43
2023-04-26T00:22:02.144Z,11.83
2023-04-26T00:24:29.611Z,12.90
2023-04-26T00:26:56.971Z,17.20
2023-04-26T00:29:24.323Z,29.87
2023-04-26T00:31:51.808Z,17.03
2023-04-26T00:34:19.190Z,18.20
2023-04-26T00:36:46.602Z,25.57
2023-04-26T00:39:13.810Z,13.93
2023-04-26T00:41:41.015Z,13.97
2023-04-26T00:44:08.173Z,12.77
2023-04-26T00:46:35.656Z,13.50
2023-04-26T00:49:03.813Z,27.70
2023-04-26T00:51:31.509Z,16.33
2023-04-26T00:53:59.539Z,11.50
2023-04-26T00:56:26.928Z,14.43
2023-04-26T00:58:54.362Z,12.97
2023-04-26T01:01:21.955Z,10.87
2023-04-26T01:03:49.302Z,11.70
2023-04-26T01:06:16.718Z,10.70
2023-04-26T01:08:44.050Z,12.63
2023-04-26T01:11:11.709Z,12.00
2023-04-26T01:13:39.550Z,13.80
2023-04-26T01:16:08.258Z,20.33
2023-04-26T01:18:36.300Z,20.80
2023-04-26T01:21:05.127Z,23.37
2023-04-26T01:23:32.828Z,19.77
2023-04-26T01:26:00.059Z,16.57
2023-04-26T01:28:27.388Z,59.83
2023-04-26T01:30:54.751Z,32.57
2023-04-26T01:33:22.404Z,37.77
2023-04-26T01:35:49.858Z,12.73
2023-04-26T01:38:17.970Z,11.97
2023-04-26T01:40:46.353Z,12.83
2023-04-26T01:43:15.492Z,12.33
2023-04-26T01:45:42.807Z,11.47
2023-04-26T01:48:10.137Z,10.30
2023-04-26T01:50:37.296Z,10.23
2023-04-26T01:53:04.689Z,13.13
2023-04-26T01:55:32.013Z,9.90
2023-04-26T01:57:59.357Z,10.77
2023-04-26T02:00:28.217Z,13.10
2023-04-26T02:02:56.311Z,11.83
2023-04-26T02:05:24.384Z,9.23
2023-04-26T02:07:51.690Z,12.37
2023-04-26T02:10:18.915Z,10.73
2023-04-26T02:12:46.131Z,11.73
2023-04-26T02:15:13.437Z,15.00
2023-04-26T02:17:41.141Z,11.70
2023-04-26T02:20:11.729Z,11.33
2023-04-26T02:22:39.081Z,11.23
2023-04-26T02:25:06.577Z,15.50
2023-04-26T02:27:34.151Z,12.00
2023-04-26T02:30:02.548Z,14.53
2023-04-26T02:32:30.051Z,11.97
2023-04-26T02:34:57.469Z,15.80
2023-04-26T02:37:24.694Z,17.90
2023-04-26T02:39:52.286Z,14.77
2023-04-26T02:42:19.520Z,13.60
2023-04-26T02:44:46.751Z,13.37
2023-04-26T02:47:14.068Z,12.07
2023-04-26T02:49:41.431Z,12.33
2023-04-26T02:52:08.748Z,10.60
2023-04-26T02:54:35.930Z,13.37
2023-04-26T02:57:03.159Z,13.10
2023-04-26T02:59:30.553Z,30.23
2023-04-26T03:01:57.831Z,10.77
2023-04-26T03:04:25.554Z,13.53
2023-04-26T03:06:52.884Z,14.23
2023-04-26T03:09:23.332Z,13.37
2023-04-26T03:11:50.855Z,13.67
2023-04-26T03:14:18.076Z,11.83
2023-04-26T03:16:45.577Z,13.13
2023-04-26T03:19:12.794Z,14.17
2023-04-26T03:21:39.948Z,13.77
2023-04-26T03:24:07.900Z,13.63
2023-04-26T03:26:35.071Z,10.67
2023-04-26T03:29:03.505Z,12.40
2023-04-26T03:31:30.841Z,13.40
2023-04-26T03:33:58.084Z,12.77
2023-04-26T03:36:26.098Z,12.97
2023-04-26T03:38:53.736Z,12.03
2023-04-26T03:41:21.471Z,12.87
2023-04-26T03:43:48.629Z,16.00
2023-04-26T03:46:16.372Z,16.20
2023-04-26T03:48:43.743Z,19.07
2023-04-26T03:51:10.949Z,14.03
2023-04-26T03:53:38.233Z,14.50
2023-04-26T03:56:05.437Z,14.40
2023-04-26T03:58:32.849Z,15.77
2023-04-26T04:01:00.931Z,15.57
2023-04-26T04:03:30.633Z,16.27
2023-04-26T04:05:58.182Z,14.73
2023-04-26T04:08:25.390Z,15.00
2023-04-26T04:10:52.582Z,14.93
2023-04-26T04:13:19.979Z,14.93
2023-04-26T04:15:47.337Z,13.67
2023-04-26T04:18:14.883Z,13.90
2023-04-26T04:20:42.438Z,14.00
2023-04-26T04:23:10.069Z,13.00
2023-04-26T04:25:37.281Z,14.70
2023-04-26T04:28:04.732Z,15.40
2023-04-26T04:30:32.100Z,17.10
2023-04-26T04:33:00.284Z,16.40
2023-04-26T04:35:29.198Z,15.10
2023-04-26T04:37:57.231Z,16.43
2023-04-26T04:40:26.027Z,15.70
2023-04-26T04:42:53.640Z,18.33
2023-04-26T04:45:21.457Z,16.67
2023-04-26T04:47:49.000Z,15.30
2023-04-26T04:50:16.332Z,17.50
2023-04-26T04:52:43.635Z,14.43
2023-04-26T04:55:11.006Z,14.87
2023-04-26T04:57:39.035Z,13.23
2023-04-26T05:00:10.530Z,13.80
2023-04-26T05:02:38.387Z,10.33
2023-04-26T05:05:06.204Z,11.43
2023-04-26T05:07:33.885Z,10.70
2023-04-26T05:10:01.413Z,11.37
2023-04-26T05:12:28.788Z,14.23
2023-04-26T05:14:55.960Z,17.90
2023-04-26T05:17:23.292Z,16.23
2023-04-26T05:19:50.484Z,18.87
2023-04-26T05:22:22.407Z,24.47
2023-04-26T05:24:49.855Z,17.93
2023-04-26T05:27:17.102Z,15.77
2023-04-26T05:29:44.438Z,14.50
2023-04-26T05:32:11.684Z,11.83
2023-04-26T05:34:39.104Z,12.07
2023-04-26T05:37:07.010Z,8.70
2023-04-26T05:39:34.208Z,10.97
2023-04-26T05:42:03.549Z,8.77
2023-04-26T05:44:31.134Z,14.53
2023-04-26T05:46:58.337Z,32.13
2023-04-26T05:49:25.663Z,9.43
2023-04-26T05:51:52.933Z,8.90
2023-04-26T05:54:20.394Z,9.90
2023-04-26T05:56:47.652Z,9.27
2023-04-26T05:59:15.172Z,8.87
2023-04-26T06:01:42.589Z,10.53
2023-04-26T06:04:10.799Z,12.50
2023-04-26T06:06:38.319Z,13.60
2023-04-26T06:09:05.817Z,13.40
2023-04-26T06:11:33.278Z,14.00
2023-04-26T06:14:00.857Z,31.47
2023-04-26T06:16:28.151Z,10.77
2023-04-26T06:18:55.632Z,13.33
2023-04-26T06:21:22.941Z,12.30
2023-04-26T06:23:50.599Z,11.03
2023-04-26T06:26:18.108Z,14.73
2023-04-26T06:28:45.760Z,11.30
2023-04-26T06:31:13.103Z,12.10
2023-04-26T06:33:40.394Z,12.37
2023-04-26T06:36:11.887Z,12.73
2023-04-26T06:38:39.210Z,12.37
2023-04-26T06:41:06.943Z,19.10
2023-04-26T06:43:34.304Z,12.90
2023-04-26T06:46:01.571Z,13.70
2023-04-26T06:48:29.004Z,11.87
2023-04-26T06:50:56.847Z,14.43
2023-04-26T06:53:24.221Z,11.43
2023-04-26T06:55:53.400Z,10.20
2023-04-26T06:58:21.268Z,11.83
2023-04-26T07:00:48.483Z,14.20
2023-04-26T07:03:16.204Z,11.27
2023-04-26T07:05:43.564Z,12.77
2023-04-26T07:08:11.002Z,14.30
2023-04-26T07:10:39.962Z,12.93
2023-04-26T07:13:09.400Z,12.30
2023-04-26T07:15:36.858Z,12.70
2023-04-26T07:18:04.188Z,13.07
2023-04-26T07:20:31.646Z,12.43
2023-04-26T07:22:58.878Z,13.60
2023-04-26T07:25:26.104Z,11.23
2023-04-26T07:27:53.297Z,11.87
2023-04-26T07:30:20.602Z,10.80
2023-04-26T07:32:48.044Z,12.87
2023-04-26T07:35:16.124Z,12.53
2023-04-26T07:37:45.042Z,7.07
2023-04-26T07:40:13.428Z,10.97
2023-04-26T07:42:40.827Z,9.33
2023-04-26T07:45:08.656Z,10.53
2023-04-26T07:47:36.027Z,10.57
2023-04-26T07:50:03.317Z,12.13
2023-04-26T07:52:30.565Z,9.33
2023-04-26T07:54:57.858Z,9.80
2023-04-26T07:57:25.013Z,8.33
2023-04-26T07:59:52.307Z,10.73
2023-04-26T08:02:24.963Z,13.17
2023-04-26T08:04:57.868Z,9.13
2023-04-26T08:07:25.491Z,9.70
2023-04-26T08:09:52.667Z,10.30
2023-04-26T08:12:20.041Z,10.23
2023-04-26T08:14:47.468Z,9.40
2023-04-26T08:17:14.954Z,8.70
2023-04-26T08:19:42.684Z,9.93
2023-04-26T08:22:09.942Z,6.40
2023-04-26T08:24:37.228Z,6.47
2023-04-26T08:27:04.581Z,10.30
2023-04-26T08:29:31.809Z,5.90
2023-04-26T08:31:59.092Z,7.53
2023-04-26T08:34:27.870Z,8.53
2023-04-26T08:36:55.080Z,8.33
2023-04-26T08:39:22.299Z,5.63
2023-04-26T08:41:55.190Z,8.10
2023-04-26T08:44:24.210Z,5.47
2023-04-26T08:47:01.867Z,6.20
2023-04-26T08:49:35.210Z,4.57
2023-04-26T08:52:03.522Z,4.53
2023-04-26T08:54:31.812Z,4.47
2023-04-26T08:57:02.623Z,5.73
2023-04-26T08:59:33.935Z,7.63
2023-04-26T09:02:03.327Z,6.10
2023-04-26T09:04:31.659Z,6.23
2023-04-26T09:07:02.833Z,5.13
2023-04-26T09:09:36.109Z,5.20
2023-04-26T09:12:03.543Z,6.87
2023-04-26T09:14:31.132Z,4.77
2023-04-26T09:16:58.395Z,6.27
2023-04-26T09:19:38.711Z,5.17
2023-04-26T09:22:06.626Z,4.57
2023-04-26T09:24:50.697Z,6.23
2023-04-26T09:27:18.122Z,3.60
2023-04-26T09:30:02.056Z,6.07
2023-04-26T09:32:43.817Z,4.13
2023-04-26T09:35:19.518Z,4.60
2023-04-26T09:38:01.120Z,3.63
2023-04-26T09:40:32.497Z,3.53
2023-04-26T09:43:07.255Z,4.53
2023-04-26T09:45:43.517Z,3.73
2023-04-26T09:48:30.744Z,4.07
2023-04-26T09:50:59.096Z,4.57
2023-04-26T09:53:27.536Z,3.70
2023-04-26T09:55:55.597Z,3.23
2023-04-26T09:58:23.462Z,4.37
2023-04-26T10:00:54.656Z,5.13
2023-04-26T10:03:23.832Z,4.33
2023-04-26T10:05:51.502Z,2.53
2023-04-26T10:08:18.825Z,4.20
2023-04-26T10:10:46.286Z,3.40
2023-04-26T10:13:13.998Z,3.03
2023-04-26T10:15:42.214Z,4.40
2023-04-26T10:18:09.445Z,6.93
2023-04-26T10:20:42.014Z,5.67
2023-04-26T10:23:15.966Z,6.67
2023-04-26T10:25:44.400Z,7.27
2023-04-26T10:28:11.666Z,7.10
2023-04-26T10:31:07.060Z,8.70
2023-04-26T10:33:34.357Z,4.70
2023-04-26T10:36:05.639Z,5.90
2023-04-26T10:38:33.421Z,5.03
2023-04-26T10:41:19.345Z,6.60
2023-04-26T10:43:46.744Z,6.63
2023-04-26T10:46:34.468Z,6.37
2023-04-26T10:49:13.220Z,5.57
2023-04-26T10:51:40.473Z,8.13
2023-04-26T10:54:07.843Z,4.57
2023-04-26T10:56:41.193Z,7.63
2023-04-26T11:01:46.701Z,4.33
2023-04-26T11:04:14.288Z,3.50
2023-04-26T11:06:51.814Z,3.13
2023-04-26T11:09:51.912Z,3.17
2023-04-26T11:12:19.153Z,7.63
2023-04-26T11:14:46.779Z,8.50
2023-04-26T11:17:14.430Z,6.00
2023-04-26T11:19:42.237Z,8.50
2023-04-26T11:22:09.652Z,8.50
2023-04-26T11:24:37.181Z,6.80
2023-04-26T11:27:11.412Z,6.20
2023-04-26T11:29:39.027Z,5.87
2023-04-26T11:32:07.186Z,6.60
2023-04-26T11:34:41.772Z,6.10
2023-04-26T11:37:09.029Z,9.63
2023-04-26T11:39:37.333Z,6.63
2023-04-26T11:42:07.880Z,6.90
2023-04-26T11:44:35.608Z,5.97
2023-04-26T11:47:06.520Z,4.33
2023-04-26T11:49:34.934Z,4.93
2023-04-26T11:52:03.310Z,4.73
2023-04-26T11:54:31.569Z,5.07
2023-04-26T11:56:59.340Z,7.67
2023-04-26T11:59:30.747Z,4.87
2023-04-26T12:01:58.461Z,5.20
2023-04-26T12:04:30.280Z,5.27
2023-04-26T12:06:58.191Z,6.40
2023-04-26T12:09:28.059Z,5.50
2023-04-26T12:12:02.229Z,7.00
2023-04-26T12:14:32.159Z,6.57
2023-04-26T12:17:03.592Z,5.60
2023-04-26T12:19:34.521Z,7.10
2023-04-26T12:22:01.819Z,10.10
2023-04-26T12:24:33.284Z,7.47
2023-04-26T12:27:02.305Z,7.00
2023-04-26T12:29:30.840Z,8.97
2023-04-26T12:32:02.112Z,6.27
2023-04-26T12:34:29.681Z,6.60
2023-04-26T12:36:56.880Z,4.87
2023-04-26T12:39:24.132Z,4.80
2023-04-26T12:41:51.435Z,6.17
2023-04-26T12:44:21.257Z,6.67
2023-04-26T12:46:49.764Z,5.97
2023-04-26T12:49:17.079Z,5.93
2023-04-26T12:51:44.380Z,5.10
2023-04-26T12:54:11.557Z,3.97
2023-04-26T12:56:43.734Z,5.73
2023-04-26T12:59:11.303Z,6.32
2023-04-26T13:01:38.700Z,4.95
2023-04-26T13:04:06.535Z,7.43
2023-04-26T13:06:34.187Z,7.43
2023-04-26T13:09:01.929Z,4.00
2023-04-26T13:11:29.219Z,3.95
2023-04-26T13:13:56.517Z,6.50
2023-04-26T13:16:24.136Z,3.58
2023-04-26T13:18:51.353Z,4.82
2023-04-26T13:21:18.827Z,3.00
2023-04-26T13:23:46.941Z,4.00
2023-04-26T13:26:15.190Z,3.63
2023-04-26T13:28:42.507Z,3.75
2023-04-26T13:31:09.852Z,4.07
2023-04-26T13:33:37.050Z,4.30
2023-04-26T13:36:04.374Z,3.38
2023-04-26T13:38:32.857Z,3.50
2023-04-26T13:41:00.598Z,3.05
2023-04-26T13:43:27.862Z,5.05
2023-04-26T13:45:55.058Z,4.20
2023-04-26T13:48:22.427Z,6.10
2023-04-26T13:50:49.678Z,5.15
2023-04-26T13:53:16.849Z,4.45
2023-04-26T13:55:44.154Z,3.75
2023-04-26T13:58:11.545Z,2.90
2023-04-26T14:00:38.921Z,4.57
2023-04-26T14:03:06.315Z,3.10
2023-04-26T14:05:33.629Z,5.93
2023-04-26T14:08:00.994Z,3.53
2023-04-26T14:10:28.277Z,3.35
2023-04-26T14:12:56.464Z,2.90
2023-04-26T14:15:23.784Z,3.67
2023-04-26T14:17:51.207Z,2.92
2023-04-26T14:20:18.597Z,4.25
2023-04-26T14:22:45.986Z,3.67
2023-04-26T14:25:13.265Z,3.50
2023-04-26T14:27:40.567Z,2.22
2023-04-26T14:30:08.219Z,5.60
2023-04-26T14:32:35.637Z,3.65
2023-04-26T14:35:02.873Z,2.72
2023-04-26T14:37:30.074Z,2.45
2023-04-26T14:39:57.344Z,3.00
2023-04-26T14:42:24.557Z,2.75
2023-04-26T14:44:52.228Z,2.95
2023-04-26T14:47:19.443Z,2.20
2023-04-26T14:49:46.784Z,2.97
2023-04-26T14:52:14.015Z,3.67
2023-04-26T14:54:41.849Z,3.25
2023-04-26T14:57:09.520Z,2.88
2023-04-26T14:59:37.140Z,2.50
2023-04-26T15:02:05.422Z,2.75
2023-04-26T15:04:32.962Z,2.58
2023-04-26T15:07:00.666Z,3.65
2023-04-26T15:09:30.243Z,4.13
2023-04-26T15:11:57.899Z,3.28
2023-04-26T15:14:25.426Z,2.20
2023-04-26T15:16:52.599Z,2.70
2023-04-26T15:19:19.901Z,3.83
2023-04-26T15:21:47.230Z,4.28
2023-04-26T15:24:14.474Z,3.15
2023-04-26T15:26:42.038Z,2.55
2023-04-26T15:29:09.384Z,7.13
2023-04-26T15:31:37.044Z,2.83
2023-04-26T15:34:04.755Z,3.60
2023-04-26T15:36:32.090Z,2.78
2023-04-26T15:38:59.254Z,4.20
2023-04-26T15:41:26.860Z,4.07
2023-04-26T15:43:57.767Z,2.35
2023-04-26T15:46:25.119Z,3.20
2023-04-26T15:48:52.429Z,2.55
2023-04-26T15:51:19.613Z,2.20
2023-04-26T15:53:46.832Z,4.72
2023-04-26T15:56:15.089Z,2.92
2023-04-26T15:58:44.678Z,3.30
2023-04-26T16:01:12.496Z,2.30
2023-04-26T16:03:40.391Z,3.83
2023-04-26T16:06:09.513Z,6.65
2023-04-26T16:08:40.676Z,3.95
2023-04-26T16:11:08.356Z,4.50
2023-04-26T16:13:35.700Z,5.95
2023-04-26T16:16:02.996Z,8.75
2023-04-26T16:18:30.423Z,4.32
2023-04-26T16:21:04.774Z,4.97
2023-04-26T16:23:32.011Z,4.13
2023-04-26T16:25:59.995Z,3.37
2023-04-26T16:28:27.331Z,5.43
2023-04-26T16:30:54.722Z,3.33
2023-04-26T16:33:23.092Z,3.97
2023-04-26T16:35:55.059Z,4.85
2023-04-26T16:38:22.999Z,2.83
2023-04-26T16:40:58.036Z,3.17
2023-04-26T16:43:29.069Z,4.78
2023-04-26T16:46:06.731Z,4.60
2023-04-26T16:48:38.214Z,3.57
2023-04-26T16:51:07.694Z,6.87
2023-04-26T16:53:36.083Z,5.60
2023-04-26T16:56:03.450Z,2.60
2023-04-26T16:58:30.706Z,5.55
2023-04-26T17:01:01.404Z,4.27
2023-04-26T17:03:28.868Z,4.95
2023-04-26T17:05:56.533Z,2.95
2023-04-26T17:08:23.810Z,5.38
2023-04-26T17:10:51.934Z,2.40
2023-04-26T17:13:19.491Z,3.08
2023-04-26T17:15:47.151Z,6.05
2023-04-26T17:18:14.441Z,4.25
2023-04-26T17:20:42.384Z,4.05
2023-04-26T17:23:10.063Z,4.28
2023-04-26T17:25:37.277Z,2.70
2023-04-26T17:28:04.642Z,4.32
2023-04-26T17:30:32.011Z,5.95
2023-04-26T17:32:59.344Z,4.00
2023-04-26T17:35:26.770Z,5.70
2023-04-26T17:37:53.945Z,26.65
2023-04-26T17:40:21.246Z,6.85
2023-04-26T17:42:48.450Z,5.63
2023-04-26T17:45:16.020Z,9.00
2023-04-26T17:47:44.906Z,3.20
2023-04-26T17:50:12.348Z,3.63
2023-04-26T17:52:39.621Z,4.03
2023-04-26T17:55:09.476Z,2.43
2023-04-26T17:57:37.245Z,3.93
2023-04-26T18:00:06.568Z,2.73
2023-04-26T18:02:34.051Z,2.90
2023-04-26T18:05:01.742Z,4.00
2023-04-26T18:07:29.109Z,4.93
2023-04-26T18:09:56.540Z,3.53
2023-04-26T18:12:23.858Z,3.57
2023-04-26T18:14:51.706Z,6.43
2023-04-26T18:17:18.932Z,3.23
2023-04-26T18:19:46.194Z,4.80
2023-04-26T18:22:13.519Z,4.73
2023-04-26T18:24:40.779Z,5.47
2023-04-26T18:27:08.081Z,15.63
2023-04-26T18:29:35.340Z,7.30
2023-04-26T18:32:02.557Z,13.70
2023-04-26T18:34:29.729Z,3.93
2023-04-26T18:36:57.150Z,6.90
2023-04-26T18:39:24.351Z,5.37
2023-04-26T18:41:53.585Z,6.20
2023-04-26T18:44:20.925Z,4.07
2023-04-26T18:46:48.231Z,6.30
2023-04-26T18:49:15.521Z,3.93
2023-04-26T18:51:42.852Z,5.47
2023-04-26T18:54:10.087Z,7.67
2023-04-26T18:56:37.686Z,6.10
2023-04-26T18:59:04.924Z,5.63
2023-04-26T19:01:32.259Z,4.67
2023-04-26T19:03:59.750Z,5.40
2023-04-26T19:06:28.303Z,4.37
2023-04-26T19:08:55.643Z,4.23
2023-04-26T19:11:22.972Z,4.47
2023-04-26T19:13:50.717Z,4.80
2023-04-26T19:16:17.965Z,5.90
2023-04-26T19:18:45.284Z,5.73
2023-04-26T19:21:12.553Z,8.33
2023-04-26T19:23:39.706Z,6.07
2023-04-26T19:26:12.334Z,5.03
2023-04-26T19:28:39.720Z,5.13
2023-04-26T19:31:07.355Z,7.93
2023-04-26T19:33:34.610Z,4.43
2023-04-26T19:36:01.762Z,3.63
2023-04-26T19:38:29.300Z,3.63
2023-04-26T19:40:56.478Z,3.53
2023-04-26T19:43:23.761Z,3.33
2023-04-26T19:45:51.321Z,5.87
2023-04-26T19:48:18.951Z,6.13
2023-04-26T19:50:47.350Z,5.63
2023-04-26T19:53:15.449Z,4.37
2023-04-26T19:55:43.088Z,7.30
2023-04-26T19:58:11.077Z,6.63
2023-04-26T20:00:40.177Z,12.90
2023-04-26T20:03:07.731Z,7.20
2023-04-26T20:05:35.156Z,8.50
2023-04-26T20:08:02.669Z,7.50
2023-04-26T20:10:34.046Z,7.13
2023-04-26T20:13:01.620Z,4.90
2023-04-26T20:15:31.010Z,6.00
2023-04-26T20:18:00.108Z,6.27
2023-04-26T20:20:27.433Z,5.47
2023-04-26T20:22:54.597Z,7.67
2023-04-26T20:25:22.088Z,10.37
2023-04-26T20:27:49.495Z,9.40
2023-04-26T20:30:16.683Z,7.00
2023-04-26T20:32:44.407Z,5.13
2023-04-26T20:35:13.792Z,6.43
2023-04-26T20:37:41.065Z,6.43
2023-04-26T20:40:09.251Z,5.33
2023-04-26T20:42:36.598Z,8.90
2023-04-26T20:45:03.984Z,5.00
2023-04-26T20:47:31.604Z,7.90
2023-04-26T20:49:58.950Z,5.70
2023-04-26T20:52:26.169Z,5.33
2023-04-26T20:54:53.422Z,6.07
2023-04-26T20:57:20.765Z,5.27
2023-04-26T20:59:47.985Z,7.20
2023-04-26T21:02:15.289Z,11.03
2023-04-26T21:04:42.972Z,13.00
2023-04-26T21:07:10.941Z,6.97
2023-04-26T21:09:39.126Z,8.60
2023-04-26T21:12:06.822Z,8.83
2023-04-26T21:14:34.006Z,7.20
2023-04-26T21:17:01.553Z,6.53
2023-04-26T21:19:28.755Z,7.40
2023-04-26T21:21:56.700Z,6.00
2023-04-26T21:24:23.985Z,4.60
2023-04-26T21:26:51.197Z,4.47
2023-04-26T21:29:18.398Z,5.30
2023-04-26T21:31:46.137Z,9.07
2023-04-26T21:34:13.446Z,4.37
2023-04-26T21:36:40.734Z,7.03
2023-04-26T21:39:08.045Z,6.07
2023-04-26T21:41:35.429Z,5.87
2023-04-26T21:44:02.579Z,6.07
2023-04-26T21:46:29.947Z,7.03
2023-04-26T21:48:57.194Z,5.83
2023-04-26T21:51:24.736Z,6.17
2023-04-26T21:53:52.031Z,6.50
2023-04-26T21:56:19.186Z,5.17
2023-04-26T21:58:46.724Z,5.07
2023-04-26T22:01:15.426Z,9.70
2023-04-26T22:03:42.895Z,28.63
2023-04-26T22:06:11.074Z,11.40
2023-04-26T22:08:38.936Z,5.83
2023-04-26T22:11:06.225Z,7.87
2023-04-26T22:13:33.658Z,7.13
2023-04-26T22:16:01.169Z,4.60
2023-04-26T22:18:29.346Z,6.73
2023-04-26T22:20:56.679Z,6.83
2023-04-26T22:23:24.227Z,21.47
2023-04-26T22:25:52.389Z,25.03
2023-04-26T22:28:19.604Z,44.03
2023-04-26T22:30:46.879Z,27.07
2023-04-26T22:33:14.191Z,9.13
2023-04-26T22:35:41.623Z,8.37
2023-04-26T22:38:08.832Z,11.07
2023-04-26T22:40:36.501Z,29.20
2023-04-26T22:43:03.728Z,20.23
2023-04-26T22:45:31.093Z,15.10
2023-04-26T22:47:58.334Z,6.67
2023-04-26T22:50:25.690Z,5.03
2023-04-26T22:52:52.894Z,4.80
2023-04-26T22:55:20.401Z,7.20
2023-04-26T22:57:47.691Z,16.00
2023-04-26T23:00:15.433Z,11.60
2023-04-26T23:02:42.782Z,5.87
2023-04-26T23:05:10.277Z,5.47
2023-04-26T23:07:38.012Z,6.90
2023-04-26T23:10:05.937Z,9.27
2023-04-26T23:12:33.496Z,14.40
2023-04-26T23:15:01.910Z,8.37
2023-04-26T23:17:29.356Z,8.57
2023-04-26T23:19:56.572Z,9.03
2023-04-26T23:22:23.813Z,8.80
2023-04-26T23:24:51.573Z,7.17
2023-04-26T23:27:20.842Z,5.30
2023-04-26T23:29:48.088Z,5.50
2023-04-26T23:32:15.292Z,7.87
2023-04-26T23:34:42.590Z,7.13
2023-04-26T23:37:10.006Z,5.07
2023-04-26T23:39:37.310Z,5.93
2023-04-26T23:42:04.556Z,5.93
2023-04-26T23:44:32.033Z,6.33
2023-04-26T23:46:59.235Z,6.93
2023-04-26T23:49:26.588Z,6.27
2023-04-26T23:51:53.789Z,4.93
2023-04-26T23:54:21.225Z,5.83
2023-04-26T23:56:48.417Z,6.80
2023-04-26T23:59:16.873Z,7.23
